POGODA: Poland

Lotnisko: Szczecin-Goleniow

METAR KOD: EPSC


METAR: EPSC 301830Z 00000KT 8000 BKN030 06/06 Q1026


BLOK
Pogoda METAR
301830Z
Dzien: 30, Godzina: 18:30 UTC.
00000KT
Bezwietrznie
8000
Widzialnosc pozioma 8000 m.
BKN030
5/8 - 7/8 pokrycia nieba, chmurami o podstawie: 900 metrow
06/06
Temperatura: powietrze 6°C, punkt rosy 6°C . Wilgotnosc wzgledna 100 %
Q1026
Cisnienie: 1026 hPa

Pogoda na innym lotnisku

Pogoda Gdansk-Rebiechowo WEATHER Poland  
Pogoda Katowice WEATHER Poland  
Pogoda Krakow WEATHER Poland  
Pogoda Poznan WEATHER Poland  
Pogoda Rzeszow-Jasionka WEATHER Poland  
Pogoda Szczecin WEATHER Poland  
Pogoda Warszawa-Okecie WEATHER Poland  
Pogoda Wroclaw Ii WEATHER Poland  

Pogoda w inny kraju

Strona startowa

(C) by GREGOR 2007
Ogłoszenia Towarzyskie